Terminal Aerodrome Forecast
Issued by NWS Pittsburgh, PA

Current Version | Previous Version | Graphics & Text | Print | Product List | Glossary On
Versions: 1 2 3 4 5 6 7 8 9 10 11 12 13 14 15 16 17 18 19 20 21 22 23 24 25 26 27
000
FTUS41 KPBZ 251100
TAFPIT
TAF
KPIT 251120Z 2512/2618 21010KT P6SM FEW040 WS020/26040KT
     FM251500 24010G20KT P6SM SKC
     FM252200 26008KT P6SM SCT035
     FM260000 32005KT P6SM FEW030 BKN200
     FM261500 01004KT P6SM -SN OVC050=

USA.gov is the U.S. government's official web portal to all federal, state and local government web resources and services.